KMML/MML METAR and TAF weather

Enter ICAO airport designator
Station Type Date Time Source
KMML METAR 2019/05/25 08:56 UTC NOAA

KMML 250856Z AUTO 25010KT 10SM CLR 12/08 A2979 RMK AO2 SLP088 T01170083 53018


Station Type Date Time Source
KMML Decoded METAR 2019/05/25 08:56 UTC NOAA

Marshall, Southwest Minnesota Regional Airport - Marshall/Ryan Field, MN, United States (KMML) 44-27N 095-49W
May 25, 2019 - 04:56 AM EDT / 2019.05.25 0856 UTC
Wind: from the WSW (250 degrees) at 12 MPH (10 KT):0
Visibility: 10 mile(s):0
Sky conditions: clear
Temperature: 53.1 F (11.7 C)
Dew Point: 46.9 F (8.3 C)
Relative Humidity: 79%
Pressure (altimeter): 29.79 in. Hg (1008 hPa)
Pressure tendency: 0.05 inches (1.8 hPa) higher than three hours ago
ob: KMML 250856Z AUTO 25010KT 10SM CLR 12/08 A2979 RMK AO2 SLP088 T01170083 53018
cycle: 9

Station Type Date Time Source
KMML TAF UTC NOAA

Error!

Example: see airport list